createdAt,value
2022-09-25T00:03:48.258Z,11.46
2022-09-25T00:07:49.964Z,11.43
2022-09-25T00:11:51.743Z,11.41
2022-09-25T00:15:56.256Z,11.38
2022-09-25T00:19:57.901Z,11.35
2022-09-25T00:24:01.248Z,11.33
2022-09-25T00:28:02.958Z,11.31
2022-09-25T00:32:08.281Z,11.25
2022-09-25T00:36:10.888Z,11.16
2022-09-25T00:40:12.656Z,11.11
2022-09-25T00:45:08.706Z,11.08
2022-09-25T00:49:17.426Z,10.99
2022-09-25T00:53:24.328Z,10.91
2022-09-25T00:57:31.166Z,10.80
2022-09-25T01:01:32.954Z,10.70
2022-09-25T01:05:38.453Z,10.66
2022-09-25T01:09:41.476Z,10.63
2022-09-25T01:13:43.288Z,10.62
2022-09-25T01:18:17.442Z,10.58
2022-09-25T01:22:36.759Z,10.56
2022-09-25T01:27:10.130Z,10.53
2022-09-25T01:31:20.166Z,10.56
2022-09-25T01:35:22.301Z,10.59
2022-09-25T01:39:35.450Z,10.58
2022-09-25T01:43:41.634Z,10.59
2022-09-25T01:47:47.211Z,10.60
2022-09-25T01:51:55.938Z,10.59
2022-09-25T01:56:02.897Z,10.60
2022-09-25T02:00:14.372Z,10.63
2022-09-25T02:04:25.199Z,10.67
2022-09-25T02:08:54.097Z,10.72
2022-09-25T02:13:05.750Z,10.74
2022-09-25T02:17:12.664Z,10.76
2022-09-25T02:21:25.255Z,10.78
2022-09-25T02:25:59.790Z,10.78
2022-09-25T02:30:01.744Z,10.81
2022-09-25T02:34:04.480Z,10.82
2022-09-25T02:38:06.241Z,10.81
2022-09-25T02:42:36.984Z,10.83
2022-09-25T02:47:03.467Z,10.85
2022-09-25T02:51:08.040Z,10.87
2022-09-25T02:55:17.637Z,10.88
2022-09-25T02:59:34.089Z,10.88
2022-09-25T03:03:38.372Z,10.92
2022-09-25T03:07:59.234Z,10.96
2022-09-25T03:12:03.288Z,10.99
2022-09-25T03:16:20.418Z,11.01
2022-09-25T03:20:22.077Z,11.05
2022-09-25T03:24:23.857Z,11.08
2022-09-25T03:28:25.553Z,11.07
2022-09-25T03:32:27.228Z,11.06
2022-09-25T03:36:30.243Z,11.05
2022-09-25T03:40:32.759Z,11.05
2022-09-25T03:44:34.571Z,11.04
2022-09-25T03:48:36.827Z,11.03
2022-09-25T03:52:38.950Z,11.03
2022-09-25T03:56:40.662Z,11.03
2022-09-25T04:00:43.171Z,11.02
2022-09-25T04:04:45.895Z,11.02
2022-09-25T04:08:48.492Z,11.02
2022-09-25T04:12:55.754Z,11.00
2022-09-25T04:16:57.563Z,10.97
2022-09-25T04:21:04.423Z,10.95
2022-09-25T04:25:07.175Z,10.93
2022-09-25T04:29:09.230Z,10.94
2022-09-25T04:33:29.729Z,10.94
2022-09-25T04:37:31.387Z,10.95
2022-09-25T04:41:33.271Z,10.98
2022-09-25T04:45:37.086Z,10.98
2022-09-25T04:49:39.162Z,11.00
2022-09-25T04:53:41.648Z,10.99
2022-09-25T04:57:58.218Z,10.99
2022-09-25T05:02:00.422Z,10.95
2022-09-25T05:06:02.130Z,10.90
2022-09-25T05:10:04.086Z,10.89
2022-09-25T05:14:05.950Z,10.86
2022-09-25T05:18:15.871Z,10.84
2022-09-25T05:22:17.489Z,10.82
2022-09-25T05:26:19.152Z,10.79
2022-09-25T05:30:20.991Z,10.81
2022-09-25T05:34:22.631Z,10.84
2022-09-25T05:38:24.284Z,10.88
2022-09-25T05:42:25.937Z,10.90
2022-09-25T05:46:27.671Z,10.95
2022-09-25T05:50:29.574Z,11.00
2022-09-25T05:54:31.305Z,11.07
2022-09-25T05:58:35.231Z,11.12
2022-09-25T06:02:37.025Z,11.15
2022-09-25T06:06:38.747Z,11.22
2022-09-25T06:10:41.584Z,11.29
2022-09-25T06:14:43.295Z,11.34
2022-09-25T06:18:46.556Z,11.39
2022-09-25T06:22:58.326Z,11.43
2022-09-25T06:26:59.980Z,11.45
2022-09-25T06:31:03.255Z,11.47
2022-09-25T06:35:05.412Z,11.51
2022-09-25T06:39:07.131Z,11.57
2022-09-25T06:43:16.514Z,11.64
2022-09-25T06:47:19.657Z,11.71
2022-09-25T06:51:24.836Z,11.77
2022-09-25T06:55:27.883Z,11.85
2022-09-25T06:59:29.615Z,11.93
2022-09-25T07:03:47.537Z,11.96
2022-09-25T07:07:49.229Z,11.99
2022-09-25T07:11:53.067Z,12.09
2022-09-25T07:15:56.750Z,12.21
2022-09-25T07:19:58.424Z,12.30
2022-09-25T07:24:00.139Z,12.37
2022-09-25T07:28:02.022Z,12.44
2022-09-25T07:32:04.831Z,12.52
2022-09-25T07:36:06.951Z,12.60
2022-09-25T07:40:12.087Z,12.70
2022-09-25T07:44:36.283Z,12.78
2022-09-25T07:48:36.409Z,12.91
2022-09-25T07:52:38.086Z,13.08
2022-09-25T07:56:39.973Z,13.21
2022-09-25T08:00:41.761Z,13.39
2022-09-25T08:04:43.420Z,13.56
2022-09-25T08:08:45.093Z,13.67
2022-09-25T08:12:47.164Z,13.73
2022-09-25T08:16:49.785Z,13.85
2022-09-25T08:20:52.570Z,13.98
2022-09-25T08:24:54.246Z,14.09
2022-09-25T08:28:56.917Z,14.15
2022-09-25T08:32:58.765Z,14.13
2022-09-25T08:37:00.433Z,14.13
2022-09-25T08:41:14.827Z,14.12
2022-09-25T08:45:46.809Z,14.15
2022-09-25T08:50:03.692Z,14.17
2022-09-25T08:54:06.081Z,14.12
2022-09-25T08:58:10.407Z,14.13
2022-09-25T09:02:21.672Z,14.11
2022-09-25T09:06:27.217Z,14.12
2022-09-25T09:10:43.435Z,14.12
2022-09-25T09:14:48.416Z,14.12
2022-09-25T09:18:50.490Z,14.09
2022-09-25T09:22:53.357Z,14.08
2022-09-25T09:27:16.856Z,14.09
2022-09-25T09:31:27.475Z,14.12
2022-09-25T09:35:41.669Z,14.19
2022-09-25T09:40:20.993Z,14.19
2022-09-25T09:44:53.173Z,14.18
2022-09-25T09:49:55.477Z,14.26
2022-09-25T09:54:21.493Z,14.38
2022-09-25T09:58:29.226Z,14.53
2022-09-25T10:02:40.746Z,14.72
2022-09-25T10:06:58.176Z,14.83
2022-09-25T10:11:00.463Z,14.86
2022-09-25T10:15:04.988Z,14.90
2022-09-25T10:19:13.512Z,14.91
2022-09-25T10:23:24.292Z,14.89
2022-09-25T10:27:47.910Z,14.87
2022-09-25T10:31:59.042Z,14.82
2022-09-25T10:36:03.777Z,14.76
2022-09-25T10:40:08.725Z,14.69
2022-09-25T10:44:34.612Z,14.67
2022-09-25T10:48:56.757Z,14.70
2022-09-25T10:53:04.191Z,14.77
2022-09-25T10:57:18.344Z,14.86
2022-09-25T11:01:20.170Z,14.91
2022-09-25T11:05:28.514Z,14.96
2022-09-25T11:09:32.569Z,15.00
2022-09-25T11:13:45.945Z,15.10
2022-09-25T11:17:51.703Z,15.23
2022-09-25T11:22:08.262Z,15.37
2022-09-25T11:26:19.528Z,15.46
2022-09-25T11:30:23.125Z,15.46
2022-09-25T11:34:31.349Z,15.45
2022-09-25T11:39:12.633Z,15.52
2022-09-25T11:43:21.090Z,15.61
2022-09-25T11:47:33.169Z,15.64
2022-09-25T11:52:06.063Z,15.65
2022-09-25T11:56:18.688Z,15.65
2022-09-25T12:00:25.424Z,15.61
2022-09-25T12:04:56.122Z,15.60
2022-09-25T12:09:19.413Z,15.66
2022-09-25T12:13:28.074Z,15.73
2022-09-25T12:17:37.950Z,15.81
2022-09-25T12:21:48.658Z,15.90
2022-09-25T12:25:55.192Z,15.97
2022-09-25T12:30:08.542Z,16.03
2022-09-25T12:34:31.122Z,15.95
2022-09-25T12:38:51.115Z,15.83
2022-09-25T12:42:55.641Z,15.75
2022-09-25T12:47:09.187Z,15.61
2022-09-25T12:51:21.755Z,15.51
2022-09-25T12:55:26.386Z,15.51
2022-09-25T12:59:36.332Z,15.46
2022-09-25T13:04:03.245Z,15.48
2022-09-25T13:08:06.817Z,15.52
2022-09-25T13:12:35.035Z,15.52
2022-09-25T13:16:37.941Z,15.45
2022-09-25T13:20:42.095Z,15.57
2022-09-25T13:24:56.516Z,15.69
2022-09-25T13:29:14.742Z,15.81
2022-09-25T13:33:20.805Z,15.81
2022-09-25T13:37:28.425Z,15.82
2022-09-25T13:41:30.987Z,15.79
2022-09-25T13:45:34.718Z,15.75
2022-09-25T13:49:36.493Z,15.72
2022-09-25T13:53:50.681Z,15.64
2022-09-25T13:57:58.664Z,15.61
2022-09-25T14:02:33.834Z,15.60
2022-09-25T14:06:39.234Z,15.61
2022-09-25T14:10:47.424Z,15.59
2022-09-25T14:15:28.296Z,15.62
2022-09-25T14:19:32.939Z,15.64
2022-09-25T14:23:47.952Z,15.62
2022-09-25T14:27:53.051Z,15.58
2022-09-25T14:32:42.769Z,15.55
2022-09-25T14:37:00.598Z,15.43
2022-09-25T14:41:33.339Z,15.40
2022-09-25T14:46:04.463Z,15.31
2022-09-25T14:50:20.529Z,15.27
2022-09-25T14:54:25.950Z,15.26
2022-09-25T14:58:32.528Z,15.22
2022-09-25T15:02:39.880Z,15.19
2022-09-25T15:06:42.458Z,15.14
2022-09-25T15:10:44.587Z,15.15
2022-09-25T15:15:02.930Z,15.18
2022-09-25T15:19:20.628Z,15.19
2022-09-25T15:23:23.100Z,15.22
2022-09-25T15:27:27.068Z,15.28
2022-09-25T15:31:37.208Z,15.31
2022-09-25T15:35:38.963Z,15.27
2022-09-25T15:39:42.320Z,15.25
2022-09-25T15:43:44.201Z,15.20
2022-09-25T15:47:54.071Z,15.09
2022-09-25T15:52:02.262Z,15.02
2022-09-25T15:56:14.158Z,14.98
2022-09-25T16:00:43.374Z,15.00
2022-09-25T16:04:52.794Z,15.01
2022-09-25T16:09:10.869Z,14.99
2022-09-25T16:13:25.039Z,14.96
2022-09-25T16:17:40.430Z,14.94
2022-09-25T16:21:42.271Z,14.87
2022-09-25T16:25:45.007Z,14.81
2022-09-25T16:29:46.735Z,14.74
2022-09-25T16:33:51.899Z,14.69
2022-09-25T16:37:54.591Z,14.65
2022-09-25T16:41:56.678Z,14.62
2022-09-25T16:46:04.302Z,14.62
2022-09-25T16:50:06.262Z,14.58
2022-09-25T16:54:10.048Z,14.55
2022-09-25T16:58:11.724Z,14.51
2022-09-25T17:02:33.138Z,14.45
2022-09-25T17:06:40.692Z,14.39
2022-09-25T17:10:42.529Z,14.34
2022-09-25T17:14:44.295Z,14.28
2022-09-25T17:18:46.017Z,14.23
2022-09-25T17:22:47.665Z,14.22
2022-09-25T17:26:51.753Z,14.15
2022-09-25T17:30:54.223Z,14.09
2022-09-25T17:34:58.398Z,14.03
2022-09-25T17:39:00.113Z,13.97
2022-09-25T17:43:01.955Z,13.95
2022-09-25T17:47:04.341Z,13.93
2022-09-25T17:51:18.151Z,13.90
2022-09-25T17:55:21.177Z,13.88
2022-09-25T17:59:22.885Z,13.85
2022-09-25T18:03:25.022Z,13.80
2022-09-25T18:07:31.232Z,13.80
2022-09-25T18:11:35.290Z,13.79
2022-09-25T18:15:41.564Z,13.79
2022-09-25T18:20:01.580Z,13.78
2022-09-25T18:24:03.825Z,13.77
2022-09-25T18:28:05.707Z,13.74
2022-09-25T18:32:08.295Z,13.71
2022-09-25T18:36:09.955Z,13.70
2022-09-25T18:40:17.284Z,13.66
2022-09-25T18:44:20.378Z,13.59
2022-09-25T18:48:22.547Z,13.53
2022-09-25T18:52:24.909Z,13.48
2022-09-25T18:56:28.280Z,13.42
2022-09-25T19:00:30.408Z,13.37
2022-09-25T19:04:32.405Z,13.32
2022-09-25T19:08:34.252Z,13.28
2022-09-25T19:12:35.941Z,13.25
2022-09-25T19:16:38.744Z,13.24
2022-09-25T19:20:54.659Z,13.26
2022-09-25T19:24:56.838Z,13.27
2022-09-25T19:28:59.837Z,13.23
2022-09-25T19:33:01.747Z,13.15
2022-09-25T19:37:03.441Z,13.07
2022-09-25T19:41:12.057Z,12.99
2022-09-25T19:45:14.194Z,12.94
2022-09-25T19:49:17.291Z,12.92
2022-09-25T19:53:19.073Z,12.89
2022-09-25T19:57:20.759Z,12.84
2022-09-25T20:01:30.353Z,12.81
2022-09-25T20:05:39.402Z,12.77
2022-09-25T20:09:41.555Z,12.71
2022-09-25T20:13:43.590Z,12.70
2022-09-25T20:17:45.450Z,12.72
2022-09-25T20:21:47.841Z,12.70
2022-09-25T20:25:49.550Z,12.70
2022-09-25T20:29:51.531Z,12.68
2022-09-25T20:33:53.405Z,12.68
2022-09-25T20:37:55.161Z,12.67
2022-09-25T20:41:56.884Z,12.66
2022-09-25T20:46:04.773Z,12.62
2022-09-25T20:50:07.679Z,12.60
2022-09-25T20:54:10.193Z,12.60
2022-09-25T20:58:11.990Z,12.58
2022-09-25T21:02:14.055Z,12.57
2022-09-25T21:06:21.951Z,12.54
2022-09-25T21:10:23.854Z,12.53
2022-09-25T21:14:28.057Z,12.51
2022-09-25T21:18:30.042Z,12.53
2022-09-25T21:22:31.718Z,12.53
2022-09-25T21:26:34.054Z,12.54
2022-09-25T21:30:35.782Z,12.51
2022-09-25T21:34:37.545Z,12.50
2022-09-25T21:38:39.534Z,12.52
2022-09-25T21:42:41.213Z,12.53
2022-09-25T21:46:44.010Z,12.58
2022-09-25T21:50:58.229Z,12.60
2022-09-25T21:55:00.127Z,12.61
2022-09-25T21:59:08.276Z,12.63
2022-09-25T22:03:10.817Z,12.65
2022-09-25T22:07:12.633Z,12.67
2022-09-25T22:11:14.940Z,12.67
2022-09-25T22:15:17.950Z,12.70
2022-09-25T22:19:22.900Z,12.72
2022-09-25T22:23:25.161Z,12.72
2022-09-25T22:27:26.791Z,12.73
2022-09-25T22:31:30.603Z,12.76
2022-09-25T22:35:32.248Z,12.76
2022-09-25T22:39:33.883Z,12.75
2022-09-25T22:43:35.668Z,12.77
2022-09-25T22:47:37.318Z,12.75
2022-09-25T22:51:39.013Z,12.74
2022-09-25T22:55:40.671Z,12.74
2022-09-25T22:59:42.358Z,12.75
2022-09-25T23:03:43.995Z,12.75
2022-09-25T23:07:45.682Z,12.75
2022-09-25T23:11:47.614Z,12.74
2022-09-25T23:15:49.318Z,12.76
2022-09-25T23:19:51.011Z,12.75
2022-09-25T23:24:00.940Z,12.75
2022-09-25T23:28:02.713Z,12.76
2022-09-25T23:32:08.098Z,12.74
2022-09-25T23:36:20.283Z,12.73
2022-09-25T23:40:22.039Z,12.74
2022-09-25T23:44:23.772Z,12.74
2022-09-25T23:48:25.514Z,12.76
2022-09-25T23:52:27.335Z,12.78
2022-09-25T23:56:31.975Z,12.78
